VLO6026 SBJP-SBFZ
Flight info
| Callsign | VLO6026 |
|---|---|
| Flight time | 0h 54m |
| Altitude | FL340 |
| Route | NTL FLZ |
| Aircraft | B703/H-VRDW/C |
Departure
| Time | 2026-05-09 02:55 |
|---|---|
| Airport | Presidente Castro Pinto International Airport (SBJP) |
Arrival
| Time | 2026-05-09 03:50 |
|---|---|
| Airport | Pinto Martins International Airport (SBFZ) |
| Time | Latitude | Longitude | Altitude | Speed | Heading |
|---|---|---|---|---|---|
| 2026-05-09 02:42 | -7.14581 | -34.94971 | 224 ft | 0 kts | 135° |
| 2026-05-09 02:47 | -7.14570 | -34.94982 | 223 ft | 6 kts | 137° |
| 2026-05-09 02:47 | -7.14535 | -34.94987 | 223 ft | 4 kts | 223° |
| 2026-05-09 02:47 | -7.14532 | -34.94984 | 223 ft | 0 kts | 234° |
| 2026-05-09 02:49 | -7.14534 | -34.94986 | 223 ft | 2 kts | 234° |
| 2026-05-09 02:50 | -7.14547 | -34.95005 | 223 ft | 5 kts | 234° |
| 2026-05-09 02:50 | -7.14579 | -34.95043 | 223 ft | 10 kts | 228° |
| 2026-05-09 02:50 | -7.14647 | -34.95039 | 224 ft | 14 kts | 129° |
| 2026-05-09 02:50 | -7.14742 | -34.95022 | 224 ft | 18 kts | 225° |
| 2026-05-09 02:51 | -7.14837 | -34.95081 | 224 ft | 15 kts | 150° |
| 2026-05-09 02:51 | -7.14910 | -34.95010 | 224 ft | 15 kts | 135° |
| 2026-05-09 02:51 | -7.14988 | -34.94934 | 224 ft | 16 kts | 135° |
| 2026-05-09 02:51 | -7.15076 | -34.94847 | 223 ft | 19 kts | 135° |
| 2026-05-09 02:52 | -7.15180 | -34.94743 | 222 ft | 23 kts | 135° |
| 2026-05-09 02:52 | -7.15301 | -34.94624 | 220 ft | 26 kts | 135° |
| 2026-05-09 02:52 | -7.15425 | -34.94500 | 217 ft | 24 kts | 135° |
| 2026-05-09 02:52 | -7.15531 | -34.94396 | 215 ft | 19 kts | 135° |
| 2026-05-09 02:53 | -7.15620 | -34.94339 | 213 ft | 13 kts | 170° |
| 2026-05-09 02:53 | -7.15667 | -34.94305 | 213 ft | 6 kts | 85° |
| 2026-05-09 02:53 | -7.15636 | -34.94287 | 213 ft | 6 kts | 342° |
| 2026-05-09 02:53 | -7.15617 | -34.94302 | 213 ft | 0 kts | 315° |
| 2026-05-09 02:54 | -7.15535 | -34.94388 | 215 ft | 48 kts | 315° |
| 2026-05-09 02:55 | -7.15144 | -34.94777 | 223 ft | 109 kts | 315° |
| 2026-05-09 02:55 | -7.14479 | -34.95439 | 220 ft | 160 kts | 315° |
| 2026-05-09 02:55 | -7.13632 | -34.96276 | 633 ft | 171 kts | 315° |
| 2026-05-09 02:55 | -7.12757 | -34.97139 | 1133 ft | 183 kts | 315° |
| 2026-05-09 02:56 | -7.11839 | -34.98043 | 1511 ft | 186 kts | 315° |
| 2026-05-09 02:56 | -7.10821 | -34.98866 | 2011 ft | 189 kts | 333° |
| 2026-05-09 02:56 | -7.09570 | -34.99277 | 2368 ft | 189 kts | 348° |
| 2026-05-09 02:56 | -7.08263 | -34.99502 | 2782 ft | 191 kts | 351° |
| 2026-05-09 02:57 | -7.06943 | -34.99697 | 3138 ft | 192 kts | 352° |
| 2026-05-09 02:57 | -7.05613 | -34.99897 | 3393 ft | 193 kts | 351° |
| 2026-05-09 02:57 | -7.04284 | -35.00101 | 3627 ft | 193 kts | 351° |
| 2026-05-09 02:57 | -7.02950 | -35.00311 | 3878 ft | 194 kts | 351° |
| 2026-05-09 02:58 | -7.01608 | -35.00525 | 4300 ft | 194 kts | 351° |
| 2026-05-09 02:58 | -7.00269 | -35.00742 | 4835 ft | 196 kts | 351° |
| 2026-05-09 02:58 | -6.98916 | -35.00964 | 5326 ft | 198 kts | 351° |
| 2026-05-09 02:58 | -6.97521 | -35.01196 | 5906 ft | 208 kts | 351° |
| 2026-05-09 02:59 | -6.96051 | -35.01443 | 6466 ft | 220 kts | 350° |
| 2026-05-09 02:59 | -6.94565 | -35.01697 | 6997 ft | 232 kts | 350° |
| 2026-05-09 02:59 | -6.92920 | -35.01981 | 7549 ft | 246 kts | 350° |
| 2026-05-09 02:59 | -6.91169 | -35.02288 | 8100 ft | 261 kts | 350° |
| 2026-05-09 03:00 | -6.89330 | -35.02615 | 8640 ft | 276 kts | 350° |
| 2026-05-09 03:00 | -6.87409 | -35.02961 | 9127 ft | 282 kts | 349° |
| 2026-05-09 03:00 | -6.85467 | -35.03317 | 9612 ft | 285 kts | 349° |
| 2026-05-09 03:00 | -6.83507 | -35.03681 | 10106 ft | 287 kts | 349° |
| 2026-05-09 03:01 | -6.81536 | -35.04053 | 10599 ft | 289 kts | 349° |
| 2026-05-09 03:01 | -6.79550 | -35.04432 | 11094 ft | 291 kts | 349° |
| 2026-05-09 03:01 | -6.77538 | -35.04822 | 11591 ft | 293 kts | 349° |
| 2026-05-09 03:01 | -6.75500 | -35.05221 | 12139 ft | 304 kts | 349° |
| 2026-05-09 03:02 | -6.73375 | -35.05643 | 12672 ft | 317 kts | 348° |
| 2026-05-09 03:02 | -6.71161 | -35.06089 | 13196 ft | 331 kts | 348° |
| 2026-05-09 03:02 | -6.68852 | -35.06559 | 13718 ft | 345 kts | 348° |
| 2026-05-09 03:02 | -6.66454 | -35.07054 | 14228 ft | 357 kts | 348° |
| 2026-05-09 03:03 | -6.64005 | -35.07566 | 14858 ft | 361 kts | 348° |
| 2026-05-09 03:03 | -6.61514 | -35.08094 | 15598 ft | 365 kts | 348° |
| 2026-05-09 03:03 | -6.59012 | -35.08630 | 16341 ft | 369 kts | 348° |
| 2026-05-09 03:03 | -6.56483 | -35.09178 | 17086 ft | 373 kts | 348° |
| 2026-05-09 03:04 | -6.53930 | -35.09738 | 17828 ft | 377 kts | 347° |
| 2026-05-09 03:04 | -6.51360 | -35.10308 | 18567 ft | 379 kts | 347° |
| 2026-05-09 03:04 | -6.48775 | -35.10886 | 19303 ft | 381 kts | 347° |
| 2026-05-09 03:04 | -6.46173 | -35.11474 | 19977 ft | 385 kts | 347° |
| 2026-05-09 03:05 | -6.43530 | -35.12077 | 20606 ft | 389 kts | 347° |
| 2026-05-09 03:05 | -6.40880 | -35.12688 | 21224 ft | 392 kts | 347° |
| 2026-05-09 03:05 | -6.38206 | -35.13308 | 21834 ft | 396 kts | 347° |
| 2026-05-09 03:05 | -6.35503 | -35.13940 | 22366 ft | 402 kts | 347° |
| 2026-05-09 03:06 | -6.32764 | -35.14586 | 22859 ft | 407 kts | 347° |
| 2026-05-09 03:06 | -6.29993 | -35.15244 | 23362 ft | 412 kts | 346° |
| 2026-05-09 03:06 | -6.27181 | -35.15915 | 23860 ft | 418 kts | 346° |
| 2026-05-09 03:06 | -6.24318 | -35.16621 | 24352 ft | 424 kts | 343° |
| 2026-05-09 03:07 | -6.21608 | -35.17800 | 24818 ft | 427 kts | 330° |
| 2026-05-09 03:07 | -6.19237 | -35.19612 | 25307 ft | 430 kts | 316° |
| 2026-05-09 03:07 | -6.17299 | -35.21890 | 25816 ft | 433 kts | 307° |
| 2026-05-09 03:07 | -6.15570 | -35.24376 | 26328 ft | 437 kts | 304° |
| 2026-05-09 03:08 | -6.13865 | -35.26912 | 26828 ft | 441 kts | 304° |
| 2026-05-09 03:08 | -6.12139 | -35.29458 | 27323 ft | 444 kts | 304° |
| 2026-05-09 03:08 | -6.10383 | -35.32047 | 27821 ft | 448 kts | 304° |
| 2026-05-09 03:08 | -6.08642 | -35.34647 | 28315 ft | 451 kts | 303° |
| 2026-05-09 03:09 | -6.06910 | -35.37276 | 28808 ft | 454 kts | 303° |
| 2026-05-09 03:09 | -6.05189 | -35.39934 | 29300 ft | 456 kts | 302° |
| 2026-05-09 03:09 | -6.03481 | -35.42617 | 29791 ft | 459 kts | 302° |
| 2026-05-09 03:09 | -6.01782 | -35.45326 | 30282 ft | 460 kts | 302° |
| 2026-05-09 03:10 | -6.00098 | -35.48055 | 30772 ft | 462 kts | 301° |
| 2026-05-09 03:10 | -5.98417 | -35.50821 | 31265 ft | 463 kts | 301° |
| 2026-05-09 03:10 | -5.96761 | -35.53588 | 31753 ft | 464 kts | 301° |
| 2026-05-09 03:10 | -5.95121 | -35.56371 | 32171 ft | 466 kts | 300° |
| 2026-05-09 03:11 | -5.93486 | -35.59188 | 32548 ft | 469 kts | 300° |
| 2026-05-09 03:11 | -5.91862 | -35.62031 | 32901 ft | 473 kts | 300° |
| 2026-05-09 03:11 | -5.90241 | -35.64910 | 33175 ft | 478 kts | 299° |
| 2026-05-09 03:11 | -5.88623 | -35.67827 | 33429 ft | 482 kts | 298° |
| 2026-05-09 03:12 | -5.87001 | -35.70799 | 33680 ft | 486 kts | 298° |
| 2026-05-09 03:12 | -5.85396 | -35.73783 | 33929 ft | 489 kts | 298° |
| 2026-05-09 03:12 | -5.83802 | -35.76792 | 34176 ft | 491 kts | 297° |
| 2026-05-09 03:12 | -5.82219 | -35.79825 | 34422 ft | 493 kts | 297° |
| 2026-05-09 03:13 | -5.79092 | -35.85953 | 34912 ft | 496 kts | 296° |
| 2026-05-09 03:13 | -5.77551 | -35.89039 | 35156 ft | 497 kts | 296° |
| 2026-05-09 03:13 | -5.76012 | -35.92165 | 35365 ft | 499 kts | 296° |
| 2026-05-09 03:14 | -5.72970 | -35.98480 | 35295 ft | 510 kts | 295° |
| 2026-05-09 03:14 | -5.69938 | -36.04954 | 35229 ft | 518 kts | 295° |
| 2026-05-09 03:15 | -5.66941 | -36.11534 | 35202 ft | 523 kts | 294° |
| 2026-05-09 03:15 | -5.63971 | -36.18236 | 35182 ft | 527 kts | 294° |
| 2026-05-09 03:16 | -5.61055 | -36.24987 | 35179 ft | 531 kts | 293° |
| 2026-05-09 03:16 | -5.58197 | -36.31775 | 35161 ft | 529 kts | 292° |
| 2026-05-09 03:17 | -5.55391 | -36.38602 | 35162 ft | 529 kts | 292° |
| 2026-05-09 03:17 | -5.52650 | -36.45424 | 35161 ft | 529 kts | 291° |
| 2026-05-09 03:18 | -5.49957 | -36.52269 | 35159 ft | 529 kts | 291° |
| 2026-05-09 03:18 | -5.47314 | -36.59124 | 35156 ft | 529 kts | 291° |
| 2026-05-09 03:19 | -5.44701 | -36.66025 | 35156 ft | 529 kts | 290° |
| 2026-05-09 03:19 | -5.42137 | -36.72915 | 35155 ft | 529 kts | 290° |
| 2026-05-09 03:20 | -5.39608 | -36.79816 | 35155 ft | 529 kts | 290° |
| 2026-05-09 03:20 | -5.37099 | -36.86754 | 35155 ft | 529 kts | 290° |
| 2026-05-09 03:21 | -5.34742 | -36.93708 | 34866 ft | 526 kts | 286° |
| 2026-05-09 03:21 | -5.32855 | -37.00765 | 35028 ft | 527 kts | 284° |
| 2026-05-09 03:22 | -5.30978 | -37.07854 | 35099 ft | 529 kts | 285° |
| 2026-05-09 03:22 | -5.29063 | -37.14971 | 35131 ft | 529 kts | 285° |
| 2026-05-09 03:23 | -5.27156 | -37.22067 | 35146 ft | 529 kts | 285° |
| 2026-05-09 03:23 | -5.25246 | -37.29164 | 35151 ft | 529 kts | 285° |
| 2026-05-09 03:24 | -5.23891 | -37.32565 | 35132 ft | 528 kts | 297° |
| 2026-05-09 03:24 | -5.21863 | -37.35647 | 35139 ft | 528 kts | 308° |
| 2026-05-09 03:24 | -5.19288 | -37.38254 | 35142 ft | 528 kts | 320° |
| 2026-05-09 03:24 | -5.16277 | -37.40346 | 35153 ft | 528 kts | 326° |
| 2026-05-09 03:25 | -5.13476 | -37.42703 | 35145 ft | 527 kts | 315° |
| 2026-05-09 03:25 | -5.10972 | -37.45379 | 35173 ft | 528 kts | 313° |
| 2026-05-09 03:25 | -5.05736 | -37.50541 | 35156 ft | 529 kts | 316° |
| 2026-05-09 03:26 | -5.00454 | -37.55697 | 35139 ft | 527 kts | 315° |
| 2026-05-09 03:26 | -4.97933 | -37.58215 | 34975 ft | 496 kts | 315° |
| 2026-05-09 03:26 | -4.95535 | -37.60607 | 35100 ft | 486 kts | 315° |
| 2026-05-09 03:27 | -4.90723 | -37.65390 | 35139 ft | 489 kts | 315° |
| 2026-05-09 03:27 | -4.85891 | -37.70198 | 34876 ft | 489 kts | 315° |
| 2026-05-09 03:28 | -4.83495 | -37.72582 | 34237 ft | 482 kts | 315° |
| 2026-05-09 03:28 | -4.81136 | -37.74931 | 33607 ft | 477 kts | 315° |
| 2026-05-09 03:28 | -4.78799 | -37.77258 | 32980 ft | 472 kts | 315° |
| 2026-05-09 03:28 | -4.76483 | -37.79565 | 32350 ft | 468 kts | 315° |
| 2026-05-09 03:29 | -4.74189 | -37.81849 | 31722 ft | 463 kts | 315° |
| 2026-05-09 03:29 | -4.71919 | -37.84109 | 31097 ft | 459 kts | 315° |
| 2026-05-09 03:29 | -4.69652 | -37.86365 | 30467 ft | 455 kts | 315° |
| 2026-05-09 03:29 | -4.67424 | -37.88584 | 29841 ft | 451 kts | 315° |
| 2026-05-09 03:30 | -4.65214 | -37.90784 | 29214 ft | 446 kts | 315° |
| 2026-05-09 03:30 | -4.63028 | -37.92961 | 28589 ft | 442 kts | 315° |
| 2026-05-09 03:30 | -4.60861 | -37.95117 | 27963 ft | 438 kts | 315° |
| 2026-05-09 03:30 | -4.58711 | -37.97257 | 27336 ft | 434 kts | 315° |
| 2026-05-09 03:31 | -4.56585 | -37.99374 | 26710 ft | 430 kts | 315° |
| 2026-05-09 03:31 | -4.54461 | -38.01488 | 26079 ft | 426 kts | 315° |
| 2026-05-09 03:31 | -4.52372 | -38.03567 | 25452 ft | 422 kts | 315° |
| 2026-05-09 03:31 | -4.50303 | -38.05626 | 24826 ft | 418 kts | 315° |
| 2026-05-09 03:32 | -4.48252 | -38.07666 | 24200 ft | 414 kts | 315° |
| 2026-05-09 03:32 | -4.46219 | -38.09689 | 23573 ft | 411 kts | 315° |
| 2026-05-09 03:32 | -4.44207 | -38.11691 | 22947 ft | 407 kts | 315° |
| 2026-05-09 03:32 | -4.42212 | -38.13676 | 22320 ft | 403 kts | 315° |
| 2026-05-09 03:33 | -4.40219 | -38.15659 | 21689 ft | 399 kts | 315° |
| 2026-05-09 03:33 | -4.38262 | -38.17606 | 21063 ft | 396 kts | 315° |
| 2026-05-09 03:33 | -4.36321 | -38.19537 | 20436 ft | 392 kts | 315° |
| 2026-05-09 03:33 | -4.34395 | -38.21453 | 19809 ft | 389 kts | 315° |
| 2026-05-09 03:34 | -4.32490 | -38.23348 | 19183 ft | 385 kts | 315° |
| 2026-05-09 03:34 | -4.30599 | -38.25228 | 18556 ft | 382 kts | 315° |
| 2026-05-09 03:34 | -4.28728 | -38.27090 | 17929 ft | 378 kts | 315° |
| 2026-05-09 03:34 | -4.26857 | -38.28950 | 17297 ft | 375 kts | 315° |
| 2026-05-09 03:35 | -4.25018 | -38.30779 | 16670 ft | 372 kts | 315° |
| 2026-05-09 03:35 | -4.23194 | -38.32593 | 16043 ft | 368 kts | 315° |
| 2026-05-09 03:35 | -4.21387 | -38.34390 | 15416 ft | 365 kts | 315° |
| 2026-05-09 03:35 | -4.19598 | -38.36169 | 14790 ft | 362 kts | 315° |
| 2026-05-09 03:36 | -4.17820 | -38.37936 | 14162 ft | 359 kts | 315° |
| 2026-05-09 03:36 | -4.16061 | -38.39684 | 13536 ft | 355 kts | 315° |
| 2026-05-09 03:36 | -4.14302 | -38.41433 | 12904 ft | 352 kts | 315° |
| 2026-05-09 03:36 | -4.12594 | -38.43132 | 12314 ft | 339 kts | 315° |
| 2026-05-09 03:37 | -4.10992 | -38.44724 | 12187 ft | 310 kts | 315° |
| 2026-05-09 03:37 | -4.09502 | -38.46205 | 11805 ft | 296 kts | 315° |
| 2026-05-09 03:37 | -4.08055 | -38.47643 | 11402 ft | 292 kts | 315° |
| 2026-05-09 03:37 | -4.06619 | -38.49070 | 11032 ft | 291 kts | 315° |
| 2026-05-09 03:38 | -4.05187 | -38.50494 | 10655 ft | 290 kts | 315° |
| 2026-05-09 03:38 | -4.03752 | -38.51920 | 10276 ft | 288 kts | 315° |
| 2026-05-09 03:38 | -4.02335 | -38.53328 | 9899 ft | 287 kts | 315° |
| 2026-05-09 03:38 | -4.00925 | -38.54729 | 9523 ft | 285 kts | 315° |
| 2026-05-09 03:39 | -3.99524 | -38.56122 | 9146 ft | 284 kts | 315° |
| 2026-05-09 03:39 | -3.98131 | -38.57506 | 8764 ft | 280 kts | 315° |
| 2026-05-09 03:39 | -3.96795 | -38.58833 | 8459 ft | 260 kts | 315° |
| 2026-05-09 03:39 | -3.95552 | -38.60069 | 8080 ft | 246 kts | 315° |
| 2026-05-09 03:40 | -3.94354 | -38.61259 | 7659 ft | 237 kts | 315° |
| 2026-05-09 03:40 | -3.93167 | -38.62438 | 7299 ft | 242 kts | 315° |
| 2026-05-09 03:40 | -3.91985 | -38.63612 | 6900 ft | 235 kts | 315° |
| 2026-05-09 03:40 | -3.90863 | -38.64727 | 6530 ft | 220 kts | 315° |
| 2026-05-09 03:41 | -3.89805 | -38.65778 | 6090 ft | 210 kts | 315° |
| 2026-05-09 03:41 | -3.88778 | -38.66799 | 5685 ft | 208 kts | 315° |
| 2026-05-09 03:41 | -3.87756 | -38.67813 | 5312 ft | 204 kts | 315° |
| 2026-05-09 03:41 | -3.86764 | -38.68799 | 4897 ft | 194 kts | 315° |
| 2026-05-09 03:42 | -3.85839 | -38.69716 | 4602 ft | 180 kts | 315° |
| 2026-05-09 03:42 | -3.84954 | -38.70579 | 4431 ft | 177 kts | 316° |
| 2026-05-09 03:42 | -3.84066 | -38.71431 | 4521 ft | 178 kts | 316° |
| 2026-05-09 03:42 | -3.83170 | -38.72281 | 4480 ft | 173 kts | 316° |
| 2026-05-09 03:43 | -3.82331 | -38.73068 | 4338 ft | 162 kts | 317° |
| 2026-05-09 03:43 | -3.81363 | -38.73659 | 3724 ft | 170 kts | 343° |
| 2026-05-09 03:43 | -3.80189 | -38.73722 | 3186 ft | 166 kts | 13° |
| 2026-05-09 03:43 | -3.79140 | -38.73335 | 2791 ft | 156 kts | 24° |
| 2026-05-09 03:44 | -3.78155 | -38.72911 | 2379 ft | 151 kts | 25° |
| 2026-05-09 03:44 | -3.77225 | -38.72503 | 2063 ft | 140 kts | 25° |
| 2026-05-09 03:44 | -3.76354 | -38.72115 | 1665 ft | 138 kts | 26° |
| 2026-05-09 03:44 | -3.75424 | -38.71691 | 1618 ft | 137 kts | 26° |
| 2026-05-09 03:45 | -3.74549 | -38.71283 | 1980 ft | 143 kts | 27° |
| 2026-05-09 03:45 | -3.73638 | -38.70842 | 2464 ft | 146 kts | 28° |
| 2026-05-09 03:45 | -3.72771 | -38.70257 | 2334 ft | 155 kts | 47° |
| 2026-05-09 03:45 | -3.72276 | -38.69324 | 1889 ft | 147 kts | 82° |
| 2026-05-09 03:46 | -3.72444 | -38.68358 | 1809 ft | 142 kts | 120° |
| 2026-05-09 03:46 | -3.73031 | -38.67600 | 2311 ft | 138 kts | 132° |
| 2026-05-09 03:46 | -3.73702 | -38.66849 | 2088 ft | 152 kts | 126° |
| 2026-05-09 03:46 | -3.74123 | -38.65852 | 1548 ft | 153 kts | 107° |
| 2026-05-09 03:47 | -3.74446 | -38.64848 | 1324 ft | 152 kts | 108° |
| 2026-05-09 03:47 | -3.74747 | -38.63833 | 1699 ft | 155 kts | 106° |
| 2026-05-09 03:47 | -3.75039 | -38.62790 | 1698 ft | 156 kts | 106° |
| 2026-05-09 03:47 | -3.75325 | -38.61753 | 1561 ft | 155 kts | 105° |
| 2026-05-09 03:48 | -3.75607 | -38.60718 | 1391 ft | 154 kts | 105° |
| 2026-05-09 03:48 | -3.75888 | -38.59685 | 1193 ft | 154 kts | 105° |
| 2026-05-09 03:48 | -3.76166 | -38.58660 | 991 ft | 153 kts | 105° |
| 2026-05-09 03:48 | -3.76445 | -38.57630 | 785 ft | 153 kts | 105° |
| 2026-05-09 03:49 | -3.76722 | -38.56609 | 580 ft | 152 kts | 105° |
| 2026-05-09 03:49 | -3.76998 | -38.55591 | 377 ft | 152 kts | 105° |
| 2026-05-09 03:49 | -3.77272 | -38.54579 | 175 ft | 148 kts | 105° |
| 2026-05-09 03:49 | -3.77520 | -38.53676 | 93 ft | 113 kts | 106° |
| 2026-05-09 03:50 | -3.77672 | -38.53111 | 94 ft | 57 kts | 106° |
| 2026-05-09 03:50 | -3.77744 | -38.52837 | 92 ft | 33 kts | 106° |
| 2026-05-09 03:50 | -3.77795 | -38.52660 | 90 ft | 19 kts | 114° |
| 2026-05-09 03:50 | -3.77873 | -38.52650 | 91 ft | 11 kts | 248° |
| 2026-05-09 03:51 | -3.77894 | -38.52699 | 92 ft | 4 kts | 246° |
| 2026-05-09 03:51 | -3.77899 | -38.52710 | 92 ft | 2 kts | 246° |
| 2026-05-09 03:51 | -3.77909 | -38.52741 | 92 ft | 9 kts | 258° |
| 2026-05-09 03:51 | -3.77899 | -38.52828 | 93 ft | 17 kts | 283° |
| 2026-05-09 03:52 | -3.77868 | -38.52949 | 94 ft | 19 kts | 284° |
| 2026-05-09 03:52 | -3.77834 | -38.53075 | 95 ft | 18 kts | 285° |
| 2026-05-09 03:52 | -3.77805 | -38.53187 | 95 ft | 16 kts | 284° |
| 2026-05-09 03:52 | -3.77779 | -38.53286 | 95 ft | 14 kts | 285° |
| 2026-05-09 03:53 | -3.77754 | -38.53379 | 95 ft | 14 kts | 284° |
| 2026-05-09 03:53 | -3.77731 | -38.53469 | 95 ft | 13 kts | 284° |
| 2026-05-09 03:53 | -3.77707 | -38.53561 | 94 ft | 14 kts | 284° |
| 2026-05-09 03:53 | -3.77679 | -38.53662 | 94 ft | 16 kts | 285° |
| 2026-05-09 03:54 | -3.77674 | -38.53775 | 94 ft | 17 kts | 245° |
| 2026-05-09 03:54 | -3.77748 | -38.53873 | 93 ft | 18 kts | 204° |
| 2026-05-09 03:54 | -3.77816 | -38.53838 | 93 ft | 11 kts | 125° |
| 2026-05-09 03:54 | -3.77864 | -38.53770 | 93 ft | 11 kts | 137° |
| 2026-05-09 03:55 | -3.77923 | -38.53773 | 93 ft | 7 kts | 211° |
| 2026-05-09 03:55 | -3.77935 | -38.53780 | 92 ft | 0 kts | 211° |